createdAt,value
2022-12-11T00:02:19.499Z,6.74
2022-12-11T00:04:46.477Z,6.93
2022-12-11T00:07:13.139Z,6.74
2022-12-11T00:09:41.053Z,6.67
2022-12-11T00:12:12.028Z,6.41
2022-12-11T00:14:38.626Z,6.18
2022-12-11T00:17:05.293Z,6.34
2022-12-11T00:19:32.001Z,6.36
2022-12-11T00:21:58.672Z,6.40
2022-12-11T00:24:25.717Z,6.17
2022-12-11T00:26:52.383Z,5.90
2022-12-11T00:29:19.136Z,6.05
2022-12-11T00:31:45.802Z,6.14
2022-12-11T00:34:12.407Z,6.26
2022-12-11T00:36:39.265Z,6.38
2022-12-11T00:39:06.054Z,6.45
2022-12-11T00:41:32.819Z,6.28
2022-12-11T00:43:59.440Z,5.99
2022-12-11T00:46:26.125Z,6.12
2022-12-11T00:48:52.840Z,6.04
2022-12-11T00:51:19.582Z,6.02
2022-12-11T00:53:46.249Z,6.17
2022-12-11T00:56:15.050Z,6.20
2022-12-11T00:58:41.654Z,6.26
2022-12-11T01:01:13.347Z,5.92
2022-12-11T01:03:40.054Z,6.12
2022-12-11T01:06:06.919Z,6.04
2022-12-11T01:08:38.377Z,5.89
2022-12-11T01:11:07.605Z,5.85
2022-12-11T01:13:34.445Z,5.88
2022-12-11T01:16:12.481Z,5.92
2022-12-11T01:18:39.292Z,5.89
2022-12-11T01:21:10.542Z,5.73
2022-12-11T01:23:37.272Z,5.83
2022-12-11T01:26:08.639Z,5.28
2022-12-11T01:28:35.244Z,5.54
2022-12-11T01:31:01.999Z,5.41
2022-12-11T01:33:28.699Z,5.63
2022-12-11T01:35:55.559Z,5.55
2022-12-11T01:38:22.678Z,5.29
2022-12-11T01:40:50.093Z,5.43
2022-12-11T01:43:16.805Z,5.65
2022-12-11T01:45:44.444Z,5.58
2022-12-11T01:48:21.424Z,5.45
2022-12-11T01:50:52.586Z,5.45
2022-12-11T01:53:31.285Z,5.42
2022-12-11T01:55:57.909Z,5.37
2022-12-11T01:58:27.504Z,4.85
2022-12-11T02:00:54.178Z,5.17
2022-12-11T02:03:20.855Z,5.10
2022-12-11T02:05:47.542Z,5.06
2022-12-11T02:08:14.296Z,4.78
2022-12-11T02:11:04.540Z,4.73
2022-12-11T02:13:37.189Z,4.58
2022-12-11T02:16:19.823Z,4.62
2022-12-11T02:18:46.371Z,4.52
2022-12-11T02:21:12.892Z,4.49
2022-12-11T02:24:04.165Z,4.63
2022-12-11T02:26:36.757Z,4.64
2022-12-11T02:29:06.633Z,4.76
2022-12-11T02:31:40.655Z,4.53
2022-12-11T02:34:14.190Z,4.53
2022-12-11T02:36:43.538Z,4.12
2022-12-11T02:39:11.097Z,4.35
2022-12-11T02:41:37.725Z,4.24
2022-12-11T02:44:04.385Z,4.13
2022-12-11T02:46:31.036Z,4.22
2022-12-11T02:48:57.692Z,4.28
2022-12-11T02:51:27.141Z,4.21
2022-12-11T02:53:54.888Z,4.14
2022-12-11T02:56:24.518Z,4.31
2022-12-11T02:58:58.736Z,4.12
2022-12-11T03:01:26.268Z,4.32
2022-12-11T03:03:54.071Z,4.26
2022-12-11T03:06:22.049Z,4.46
2022-12-11T03:08:48.709Z,4.43
2022-12-11T03:11:15.352Z,4.56
2022-12-11T03:13:41.989Z,4.71
2022-12-11T03:16:14.275Z,4.73
2022-12-11T03:19:02.348Z,4.69
2022-12-11T03:21:43.009Z,4.48
2022-12-11T03:24:19.604Z,4.66
2022-12-11T03:26:56.573Z,4.81
2022-12-11T03:29:26.139Z,4.78
2022-12-11T03:32:09.805Z,4.57
2022-12-11T03:34:48.892Z,4.73
2022-12-11T03:37:15.582Z,4.69
2022-12-11T03:39:44.755Z,4.84
2022-12-11T03:42:12.485Z,4.78
2022-12-11T03:44:39.263Z,4.85
2022-12-11T03:47:07.086Z,4.54
2022-12-11T03:49:36.020Z,4.86
2022-12-11T03:52:03.396Z,4.65
2022-12-11T03:54:30.023Z,4.63
2022-12-11T03:56:58.190Z,4.40
2022-12-11T03:59:24.867Z,4.35
2022-12-11T04:01:51.625Z,4.46
2022-12-11T04:04:18.318Z,4.64
2022-12-11T04:06:45.010Z,4.70
2022-12-11T04:09:11.664Z,4.25
2022-12-11T04:11:38.339Z,4.39
2022-12-11T04:14:09.865Z,4.57
2022-12-11T04:16:36.510Z,4.61
2022-12-11T04:19:03.660Z,4.67
2022-12-11T04:21:32.859Z,4.73
2022-12-11T04:24:01.763Z,4.75
2022-12-11T04:26:28.397Z,4.80
2022-12-11T04:28:55.110Z,4.78
2022-12-11T04:31:21.867Z,4.60
2022-12-11T04:33:48.518Z,4.77
2022-12-11T04:36:15.128Z,4.90
2022-12-11T04:38:41.802Z,4.98
2022-12-11T04:41:10.989Z,4.94
2022-12-11T04:43:37.644Z,4.84
2022-12-11T04:46:08.760Z,4.89
2022-12-11T04:48:35.978Z,5.05
2022-12-11T04:51:02.602Z,4.94
2022-12-11T04:53:29.258Z,4.98
2022-12-11T04:55:56.143Z,4.95
2022-12-11T04:58:23.270Z,4.98
2022-12-11T05:00:49.879Z,4.83
2022-12-11T05:03:16.492Z,4.78
2022-12-11T05:05:52.964Z,4.85
2022-12-11T05:08:20.140Z,5.05
2022-12-11T05:10:56.048Z,4.56
2022-12-11T05:13:22.722Z,4.34
2022-12-11T05:15:49.365Z,4.43
2022-12-11T05:18:16.072Z,4.59
2022-12-11T05:20:42.708Z,4.58
2022-12-11T05:23:09.310Z,4.50
2022-12-11T05:25:35.995Z,4.38
2022-12-11T05:28:02.660Z,4.41
2022-12-11T05:30:29.400Z,4.35
2022-12-11T05:32:56.184Z,4.32
2022-12-11T05:35:22.801Z,4.42
2022-12-11T05:37:50.328Z,4.44
2022-12-11T05:40:17.159Z,4.64
2022-12-11T05:42:43.753Z,4.68
2022-12-11T05:45:10.925Z,4.66
2022-12-11T05:47:37.725Z,4.74
2022-12-11T05:50:04.441Z,4.82
2022-12-11T05:52:31.625Z,4.66
2022-12-11T05:54:58.241Z,4.87
2022-12-11T05:57:24.933Z,4.82
2022-12-11T05:59:51.636Z,4.81
2022-12-11T06:02:18.595Z,4.80
2022-12-11T06:04:45.290Z,4.56
2022-12-11T06:07:14.237Z,4.40
2022-12-11T06:09:40.842Z,4.38
2022-12-11T06:12:07.491Z,4.25
2022-12-11T06:14:34.192Z,4.20
2022-12-11T06:17:00.841Z,4.42
2022-12-11T06:19:29.739Z,4.49
2022-12-11T06:21:58.567Z,4.57
2022-12-11T06:24:25.236Z,4.38
2022-12-11T06:26:51.858Z,4.41
2022-12-11T06:29:18.455Z,4.27
2022-12-11T06:31:45.084Z,4.42
2022-12-11T06:34:12.348Z,4.42
2022-12-11T06:36:38.997Z,4.34
2022-12-11T06:39:05.683Z,4.49
2022-12-11T06:41:32.306Z,4.21
2022-12-11T06:43:58.920Z,4.30
2022-12-11T06:46:25.590Z,4.37
2022-12-11T06:48:52.283Z,4.40
2022-12-11T06:51:20.659Z,4.51
2022-12-11T06:53:54.253Z,4.21
2022-12-11T06:56:20.920Z,4.02
2022-12-11T06:58:47.724Z,3.89
2022-12-11T07:01:24.774Z,4.11
2022-12-11T07:03:55.235Z,4.19
2022-12-11T07:06:21.911Z,3.80
2022-12-11T07:08:48.566Z,3.78
2022-12-11T07:11:16.225Z,3.54
2022-12-11T07:13:43.023Z,3.41
2022-12-11T07:16:10.274Z,3.35
2022-12-11T07:18:40.860Z,3.13
2022-12-11T07:21:07.698Z,3.25
2022-12-11T07:23:34.553Z,3.40
2022-12-11T07:26:08.307Z,3.62
2022-12-11T07:28:34.968Z,3.46
2022-12-11T07:31:08.243Z,3.26
2022-12-11T07:33:34.906Z,3.25
2022-12-11T07:36:05.714Z,3.20
2022-12-11T07:38:32.345Z,2.97
2022-12-11T07:41:04.875Z,3.08
2022-12-11T07:43:31.781Z,3.07
2022-12-11T07:46:05.149Z,3.16
2022-12-11T07:48:31.884Z,3.17
2022-12-11T07:51:14.481Z,2.85
2022-12-11T07:53:44.931Z,3.13
2022-12-11T07:56:11.785Z,3.24
2022-12-11T07:58:38.459Z,3.19
2022-12-11T08:01:06.372Z,3.33
2022-12-11T08:03:32.997Z,3.05
2022-12-11T08:05:59.696Z,2.84
2022-12-11T08:08:26.372Z,3.07
2022-12-11T08:10:53.049Z,3.17
2022-12-11T08:13:19.699Z,3.21
2022-12-11T08:15:46.387Z,3.29
2022-12-11T08:18:13.742Z,3.41
2022-12-11T08:20:40.443Z,3.30
2022-12-11T08:23:09.182Z,3.24
2022-12-11T08:25:35.826Z,3.31
2022-12-11T08:28:02.555Z,3.22
2022-12-11T08:30:29.219Z,2.91
2022-12-11T08:32:55.938Z,3.10
2022-12-11T08:35:22.814Z,3.10
2022-12-11T08:37:49.460Z,3.20
2022-12-11T08:40:16.137Z,3.15
2022-12-11T08:42:42.869Z,3.09
2022-12-11T08:45:10.242Z,2.93
2022-12-11T08:47:37.010Z,3.07
2022-12-11T08:50:04.204Z,3.34
2022-12-11T08:52:30.858Z,3.11
2022-12-11T08:54:57.962Z,3.29
2022-12-11T08:57:24.571Z,3.52
2022-12-11T08:59:51.182Z,3.44
2022-12-11T09:02:17.872Z,3.18
2022-12-11T09:04:44.644Z,3.52
2022-12-11T09:07:11.263Z,3.36
2022-12-11T09:09:38.128Z,3.54
2022-12-11T09:12:05.008Z,3.71
2022-12-11T09:14:32.153Z,3.65
2022-12-11T09:16:58.860Z,3.56
2022-12-11T09:19:30.619Z,3.59
2022-12-11T09:21:58.809Z,3.55
2022-12-11T09:24:25.640Z,3.69
2022-12-11T09:26:52.246Z,3.74
2022-12-11T09:29:18.885Z,3.84
2022-12-11T09:31:45.509Z,3.83
2022-12-11T09:34:12.828Z,3.74
2022-12-11T09:36:40.217Z,3.88
2022-12-11T09:39:07.601Z,3.88
2022-12-11T09:41:39.057Z,4.06
2022-12-11T09:44:11.164Z,4.21
2022-12-11T09:46:37.939Z,4.30
2022-12-11T09:49:04.999Z,4.21
2022-12-11T09:51:43.528Z,4.29
2022-12-11T09:54:11.261Z,4.07
2022-12-11T09:56:56.514Z,4.02
2022-12-11T09:59:28.844Z,4.14
2022-12-11T10:02:22.484Z,4.29
2022-12-11T10:04:55.047Z,4.40
2022-12-11T10:07:41.962Z,4.63
2022-12-11T10:10:32.715Z,4.76
2022-12-11T10:13:07.657Z,5.02
2022-12-11T10:15:39.452Z,4.59
2022-12-11T10:18:09.855Z,4.89
2022-12-11T10:20:36.663Z,5.05
2022-12-11T10:23:03.759Z,5.08
2022-12-11T10:25:35.659Z,5.27
2022-12-11T10:28:15.593Z,5.11
2022-12-11T10:31:00.539Z,4.96
2022-12-11T10:33:33.735Z,5.22
2022-12-11T10:36:00.333Z,5.34
2022-12-11T10:38:31.267Z,5.47
2022-12-11T10:41:02.664Z,5.31
2022-12-11T10:43:34.024Z,5.42
2022-12-11T10:46:00.735Z,5.60
2022-12-11T10:48:27.460Z,5.79
2022-12-11T10:51:01.787Z,5.77
2022-12-11T10:53:28.520Z,5.83
2022-12-11T10:55:55.165Z,5.99
2022-12-11T10:58:23.316Z,5.91
2022-12-11T11:01:20.124Z,6.00
2022-12-11T11:04:15.421Z,6.29
2022-12-11T11:06:42.332Z,6.24
2022-12-11T11:09:31.158Z,6.24
2022-12-11T11:11:57.750Z,6.21
2022-12-11T11:14:24.362Z,6.33
2022-12-11T11:16:52.249Z,6.37
2022-12-11T11:19:30.574Z,6.52
2022-12-11T11:22:01.634Z,6.47
2022-12-11T11:24:40.794Z,6.67
2022-12-11T11:27:28.219Z,6.66
2022-12-11T11:29:55.699Z,6.36
2022-12-11T11:32:38.375Z,6.33
2022-12-11T11:35:10.857Z,6.42
2022-12-11T11:37:38.181Z,6.51
2022-12-11T11:40:18.556Z,6.55
2022-12-11T11:43:03.932Z,6.58
2022-12-11T11:45:38.092Z,6.71
2022-12-11T11:48:40.678Z,6.67
2022-12-11T11:51:13.930Z,6.79
2022-12-11T11:53:40.580Z,7.00
2022-12-11T11:56:16.471Z,6.97
2022-12-11T11:58:50.424Z,6.76
2022-12-11T12:01:18.821Z,6.55
2022-12-11T12:03:45.706Z,6.50
2022-12-11T12:06:18.818Z,6.53
2022-12-11T12:09:14.581Z,6.67
2022-12-11T12:11:46.734Z,6.75
2022-12-11T12:14:52.202Z,6.82
2022-12-11T12:17:55.744Z,6.86
2022-12-11T12:20:37.354Z,6.94
2022-12-11T12:23:22.611Z,7.07
2022-12-11T12:26:17.554Z,7.06
2022-12-11T12:28:50.187Z,7.15
2022-12-11T12:31:39.765Z,7.08
2022-12-11T12:34:40.373Z,7.08
2022-12-11T12:37:36.414Z,7.02
2022-12-11T12:40:08.811Z,7.12
2022-12-11T12:42:56.274Z,7.09
2022-12-11T12:45:32.059Z,6.95
2022-12-11T12:47:58.728Z,6.96
2022-12-11T12:50:26.950Z,7.04
2022-12-11T12:52:54.569Z,7.03
2022-12-11T12:55:30.144Z,7.15
2022-12-11T12:57:58.571Z,7.21
2022-12-11T13:00:42.336Z,7.12
2022-12-11T13:03:30.470Z,7.04
2022-12-11T13:06:01.250Z,7.02
2022-12-11T13:08:30.863Z,6.95
2022-12-11T13:11:08.625Z,7.06
2022-12-11T13:13:38.113Z,7.10
2022-12-11T13:16:16.964Z,6.96
2022-12-11T13:18:44.996Z,7.08
2022-12-11T13:21:26.335Z,7.13
2022-12-11T13:23:53.062Z,7.10
2022-12-11T13:26:32.773Z,6.90
2022-12-11T13:28:59.433Z,6.97
2022-12-11T13:31:38.867Z,6.86
2022-12-11T13:34:23.641Z,6.85
2022-12-11T13:36:51.872Z,6.76
2022-12-11T13:39:26.165Z,6.79
2022-12-11T13:41:55.075Z,6.76
2022-12-11T13:44:27.438Z,6.78
2022-12-11T13:46:55.346Z,6.76
2022-12-11T13:49:27.716Z,6.79
2022-12-11T13:51:57.016Z,6.81
2022-12-11T13:54:23.725Z,6.84
2022-12-11T13:57:00.350Z,6.47
2022-12-11T13:59:33.746Z,6.57
2022-12-11T14:02:04.109Z,6.64
2022-12-11T14:04:30.861Z,6.62
2022-12-11T14:06:57.586Z,6.55
2022-12-11T14:09:25.199Z,6.53
2022-12-11T14:11:56.661Z,6.51
2022-12-11T14:14:31.222Z,6.55
2022-12-11T14:16:57.988Z,6.58
2022-12-11T14:19:24.798Z,6.53
2022-12-11T14:21:59.142Z,6.47
2022-12-11T14:24:25.807Z,6.40
2022-12-11T14:26:52.975Z,6.41
2022-12-11T14:29:31.514Z,6.42
2022-12-11T14:32:03.111Z,6.46
2022-12-11T14:34:34.952Z,6.26
2022-12-11T14:37:02.519Z,6.32
2022-12-11T14:39:38.436Z,6.25
2022-12-11T14:42:09.061Z,6.17
2022-12-11T14:44:46.268Z,6.13
2022-12-11T14:47:24.095Z,6.01
2022-12-11T14:50:03.564Z,6.05
2022-12-11T14:52:36.309Z,5.95
2022-12-11T14:55:08.261Z,5.99
2022-12-11T14:57:34.925Z,6.07
2022-12-11T15:00:01.590Z,5.71
2022-12-11T15:02:32.926Z,5.95
2022-12-11T15:05:16.988Z,5.71
2022-12-11T15:07:53.566Z,5.71
2022-12-11T15:10:29.463Z,5.60
2022-12-11T15:12:56.103Z,5.62
2022-12-11T15:15:22.748Z,5.66
2022-12-11T15:17:52.705Z,5.58
2022-12-11T15:20:29.431Z,5.49
2022-12-11T15:22:58.020Z,5.44
2022-12-11T15:25:26.947Z,5.55
2022-12-11T15:27:58.223Z,5.32
2022-12-11T15:30:26.798Z,5.40
2022-12-11T15:33:17.326Z,5.41
2022-12-11T15:35:56.426Z,5.47
2022-12-11T15:38:33.640Z,5.43
2022-12-11T15:41:00.447Z,5.36
2022-12-11T15:43:27.574Z,5.08
2022-12-11T15:45:54.264Z,5.07
2022-12-11T15:48:20.930Z,5.15
2022-12-11T15:50:47.566Z,5.16
2022-12-11T15:53:14.222Z,5.14
2022-12-11T15:55:40.940Z,5.08
2022-12-11T15:58:08.850Z,5.00
2022-12-11T16:00:35.497Z,5.07
2022-12-11T16:03:02.179Z,5.02
2022-12-11T16:05:28.830Z,4.93
2022-12-11T16:07:55.480Z,4.92
2022-12-11T16:10:22.180Z,4.90
2022-12-11T16:12:48.797Z,4.76
2022-12-11T16:15:21.637Z,4.69
2022-12-11T16:17:50.003Z,4.83
2022-12-11T16:20:16.661Z,4.65
2022-12-11T16:22:43.302Z,4.70
2022-12-11T16:25:10.275Z,4.71
2022-12-11T16:27:37.138Z,4.61
2022-12-11T16:30:03.910Z,4.61
2022-12-11T16:32:33.628Z,4.62
2022-12-11T16:35:03.947Z,4.61
2022-12-11T16:37:30.546Z,4.61
2022-12-11T16:39:57.149Z,4.60
2022-12-11T16:42:23.790Z,4.42
2022-12-11T16:44:50.545Z,4.17
2022-12-11T16:47:17.264Z,4.33
2022-12-11T16:49:43.916Z,4.30
2022-12-11T16:52:10.524Z,4.32
2022-12-11T16:54:37.294Z,4.36
2022-12-11T16:57:04.013Z,4.28
2022-12-11T16:59:36.645Z,4.31
2022-12-11T17:02:04.060Z,4.31
2022-12-11T17:04:30.715Z,4.21
2022-12-11T17:06:57.487Z,4.02
2022-12-11T17:09:24.186Z,4.16
2022-12-11T17:11:50.879Z,4.00
2022-12-11T17:14:17.575Z,3.93
2022-12-11T17:16:44.222Z,3.92
2022-12-11T17:19:10.865Z,4.00
2022-12-11T17:21:37.543Z,3.81
2022-12-11T17:24:04.257Z,3.86
2022-12-11T17:26:31.260Z,4.04
2022-12-11T17:28:57.911Z,4.05
2022-12-11T17:31:24.630Z,4.21
2022-12-11T17:33:51.384Z,4.23
2022-12-11T17:36:20.277Z,4.44
2022-12-11T17:38:47.268Z,4.27
2022-12-11T17:41:20.039Z,4.44
2022-12-11T17:43:48.373Z,4.55
2022-12-11T17:46:15.089Z,4.58
2022-12-11T17:48:44.303Z,4.54
2022-12-11T17:51:12.531Z,4.66
2022-12-11T17:53:39.183Z,4.78
2022-12-11T17:56:07.528Z,4.92
2022-12-11T17:58:34.210Z,5.00
2022-12-11T18:01:03.528Z,5.12
2022-12-11T18:03:30.209Z,5.15
2022-12-11T18:05:57.117Z,5.20
2022-12-11T18:08:27.240Z,5.18
2022-12-11T18:10:53.959Z,5.24
2022-12-11T18:13:20.866Z,5.24
2022-12-11T18:15:47.604Z,5.24
2022-12-11T18:18:14.344Z,5.27
2022-12-11T18:20:40.943Z,5.37
2022-12-11T18:23:07.559Z,5.30
2022-12-11T18:25:34.250Z,5.27
2022-12-11T18:28:01.079Z,5.22
2022-12-11T18:30:27.710Z,5.23
2022-12-11T18:32:54.398Z,5.26
2022-12-11T18:35:21.121Z,5.32
2022-12-11T18:37:47.775Z,5.30
2022-12-11T18:40:14.441Z,5.28
2022-12-11T18:42:44.310Z,5.14
2022-12-11T18:45:11.377Z,5.07
2022-12-11T18:47:38.164Z,4.95
2022-12-11T18:50:08.042Z,4.97
2022-12-11T18:52:35.191Z,4.88
2022-12-11T18:55:01.912Z,4.87
2022-12-11T18:57:28.603Z,4.91
2022-12-11T18:59:55.233Z,4.91
2022-12-11T19:02:21.977Z,4.83
2022-12-11T19:04:48.717Z,4.91
2022-12-11T19:07:15.403Z,4.88
2022-12-11T19:09:47.616Z,4.78
2022-12-11T19:12:14.805Z,4.80
2022-12-11T19:14:41.972Z,4.89
2022-12-11T19:17:08.635Z,5.00
2022-12-11T19:19:35.382Z,5.02
2022-12-11T19:22:02.028Z,5.07
2022-12-11T19:24:28.752Z,5.02
2022-12-11T19:26:55.424Z,5.10
2022-12-11T19:29:26.856Z,5.12
2022-12-11T19:31:53.885Z,5.11
2022-12-11T19:34:20.594Z,5.19
2022-12-11T19:36:47.276Z,5.18
2022-12-11T19:39:13.937Z,5.35
2022-12-11T19:41:40.649Z,5.40
2022-12-11T19:44:07.445Z,5.44
2022-12-11T19:46:34.308Z,5.49
2022-12-11T19:49:00.997Z,5.48
2022-12-11T19:51:38.232Z,5.41
2022-12-11T19:54:05.997Z,5.43
2022-12-11T19:56:32.898Z,5.44
2022-12-11T19:59:01.153Z,5.47
2022-12-11T20:01:30.560Z,5.47
2022-12-11T20:03:58.733Z,5.39
2022-12-11T20:06:27.530Z,5.47
2022-12-11T20:08:54.237Z,5.55
2022-12-11T20:11:20.971Z,5.59
2022-12-11T20:13:47.814Z,5.66
2022-12-11T20:16:15.628Z,5.45
2022-12-11T20:18:42.356Z,5.53
2022-12-11T20:21:11.421Z,5.54
2022-12-11T20:23:38.051Z,5.52
2022-12-11T20:26:08.023Z,5.57
2022-12-11T20:28:34.627Z,5.55
2022-12-11T20:31:19.733Z,5.60
2022-12-11T20:33:47.025Z,5.59
2022-12-11T20:36:15.800Z,5.58
2022-12-11T20:38:42.813Z,5.53
2022-12-11T20:41:10.280Z,5.58
2022-12-11T20:43:37.376Z,5.55
2022-12-11T20:46:07.941Z,5.55
2022-12-11T20:48:34.598Z,5.43
2022-12-11T20:51:05.399Z,5.45
2022-12-11T20:53:32.076Z,5.42
2022-12-11T20:55:58.696Z,5.60
2022-12-11T20:58:25.363Z,5.47
2022-12-11T21:00:52.705Z,5.49
2022-12-11T21:03:19.437Z,5.40
2022-12-11T21:05:46.065Z,5.45
2022-12-11T21:08:12.841Z,5.45
2022-12-11T21:10:43.750Z,5.42
2022-12-11T21:13:10.456Z,5.54
2022-12-11T21:15:37.942Z,5.54
2022-12-11T21:18:04.979Z,5.38
2022-12-11T21:20:31.735Z,5.54
2022-12-11T21:22:58.333Z,5.51
2022-12-11T21:25:25.266Z,5.47
2022-12-11T21:27:51.889Z,5.40
2022-12-11T21:30:18.525Z,5.43
2022-12-11T21:32:45.205Z,5.51
2022-12-11T21:35:12.474Z,5.47
2022-12-11T21:37:39.390Z,5.53
2022-12-11T21:40:06.564Z,5.49
2022-12-11T21:42:33.208Z,5.42
2022-12-11T21:45:52.311Z,5.61
2022-12-11T21:47:46.489Z,5.58
2022-12-11T21:50:13.118Z,5.71
2022-12-11T21:52:39.742Z,5.85
2022-12-11T21:55:06.741Z,5.83
2022-12-11T21:57:33.411Z,5.75
2022-12-11T22:00:00.056Z,5.78
2022-12-11T22:02:26.855Z,5.78
2022-12-11T22:04:53.520Z,5.80
2022-12-11T22:07:20.146Z,5.96
2022-12-11T22:09:46.790Z,5.95
2022-12-11T22:12:31.525Z,5.87
2022-12-11T22:14:58.133Z,5.88
2022-12-11T22:17:24.788Z,5.97
2022-12-11T22:19:51.470Z,5.76
2022-12-11T22:22:18.084Z,6.05
2022-12-11T22:24:44.737Z,5.99
2022-12-11T22:27:11.386Z,5.97
2022-12-11T22:29:37.974Z,6.00
2022-12-11T22:32:04.626Z,6.05
2022-12-11T22:34:31.222Z,6.01
2022-12-11T22:36:57.811Z,6.18
2022-12-11T22:39:24.466Z,6.14
2022-12-11T22:41:51.115Z,6.11
2022-12-11T22:44:19.252Z,6.07
2022-12-11T22:46:49.867Z,6.18
2022-12-11T22:49:17.912Z,5.94
2022-12-11T22:51:44.678Z,5.97
2022-12-11T22:54:11.278Z,6.10
2022-12-11T22:56:38.333Z,6.22
2022-12-11T22:59:04.927Z,6.25
2022-12-11T23:01:31.557Z,6.25
2022-12-11T23:03:58.237Z,6.23
2022-12-11T23:06:24.906Z,6.14
2022-12-11T23:08:52.909Z,5.97
2022-12-11T23:11:24.933Z,6.09
2022-12-11T23:13:52.035Z,5.89
2022-12-11T23:16:18.846Z,5.99
2022-12-11T23:18:45.488Z,6.03
2022-12-11T23:21:12.203Z,6.12
2022-12-11T23:23:38.800Z,6.17
2022-12-11T23:26:05.833Z,6.14
2022-12-11T23:28:32.565Z,6.17
2022-12-11T23:30:59.415Z,6.17
2022-12-11T23:33:26.215Z,6.23
2022-12-11T23:35:52.967Z,6.17
2022-12-11T23:38:19.629Z,6.13
2022-12-11T23:40:46.284Z,6.11
2022-12-11T23:43:12.945Z,6.01
2022-12-11T23:45:39.544Z,6.12
2022-12-11T23:48:06.177Z,6.16
2022-12-11T23:50:32.909Z,6.15
2022-12-11T23:52:59.590Z,6.15
2022-12-11T23:55:26.199Z,6.13
2022-12-11T23:57:53.349Z,6.27
